Time;durP1;ratioP1;P1;durP2;ratioP2;P2;SDS_P1;SDS_P2;PMS_P1;PMS_P2;Temp;Humidity;BMP_temperature;BMP_pressure;BME280_temperature;BME280_humidity;BME280_pressure;Samples;Min_cycle;Max_cycle;Signal;HPM_P1;HPM_P2
2021/04/17 00:02:23;;;;;;;9.50;8.70;;;3.00;99.90;;;;;;4888584;29;20057;-72
2021/04/17 00:04:50;;;;;;;11.70;10.52;;;3.00;99.90;;;;;;4872623;29;20105;-71
2021/04/17 00:07:17;;;;;;;11.60;9.88;;;2.90;99.90;;;;;;4887690;29;20045;-72
2021/04/17 00:09:44;;;;;;;11.07;10.15;;;2.80;99.90;;;;;;4888324;29;20055;-70
2021/04/17 00:12:14;;;;;;;10.45;9.50;;;2.60;99.90;;;;;;4867215;29;20052;-72
2021/04/17 00:14:41;;;;;;;10.75;9.65;;;2.50;99.90;;;;;;4850763;29;20053;-72
2021/04/17 00:17:12;;;;;;;12.55;11.27;;;2.50;99.90;;;;;;4871767;29;20057;-72
2021/04/17 00:19:40;;;;;;;13.27;11.85;;;2.40;99.90;;;;;;4896703;29;20120;-71
2021/04/17 00:22:06;;;;;;;13.55;12.18;;;2.30;99.90;;;;;;4874990;29;20475;-71
2021/04/17 00:24:33;;;;;;;11.52;10.43;;;2.30;99.90;;;;;;4891688;29;20095;-70
2021/04/17 00:27:01;;;;;;;11.75;10.65;;;2.30;99.90;;;;;;4904784;29;20088;-71
2021/04/17 00:29:28;;;;;;;12.48;9.85;;;2.40;99.90;;;;;;4890781;29;20072;-70
2021/04/17 00:31:55;;;;;;;11.48;10.30;;;2.40;99.90;;;;;;4891577;29;20504;-70
2021/04/17 00:34:21;;;;;;;10.38;9.38;;;2.30;99.90;;;;;;4880743;29;20057;-71
2021/04/17 00:36:48;;;;;;;10.40;9.45;;;2.30;99.90;;;;;;4874444;29;20052;-71
2021/04/17 00:39:14;;;;;;;9.73;8.77;;;2.00;99.90;;;;;;4889359;29;20060;-71
2021/04/17 00:41:41;;;;;;;11.05;9.95;;;2.10;99.90;;;;;;4884725;29;20117;-71
2021/04/17 00:44:07;;;;;;;10.38;9.20;;;2.20;99.90;;;;;;4878442;29;20053;-72
2021/04/17 00:46:34;;;;;;;12.70;9.05;;;2.30;99.90;;;;;;4905006;29;20096;-69
2021/04/17 00:49:09;;;;;;;13.45;8.95;;;2.20;99.90;;;;;;4900074;29;20111;-72
2021/04/17 00:51:36;;;;;;;9.18;8.30;;;2.00;99.90;;;;;;4886383;29;20120;-72
2021/04/17 00:54:04;;;;;;;9.77;8.85;;;2.10;99.90;;;;;;4873535;29;20335;-70
2021/04/17 00:56:31;;;;;;;10.23;7.90;;;1.90;99.90;;;;;;4889917;29;20056;-71
2021/04/17 00:58:58;;;;;;;8.50;7.90;;;1.90;99.90;;;;;;4874296;29;20084;-73
2021/04/17 01:01:24;;;;;;;9.68;8.43;;;1.90;99.90;;;;;;4898848;29;20136;-71
2021/04/17 01:04:30;;;;;;;8.32;7.53;;;1.80;99.90;;;;;;4881125;29;20045;-70
2021/04/17 01:07:17;;;;;;;10.32;8.15;;;1.70;99.90;;;;;;4885725;29;20052;-72
2021/04/17 01:09:49;;;;;;;13.93;8.40;;;1.70;99.90;;;;;;4882059;29;20053;-70
2021/04/17 01:12:19;;;;;;;12.48;9.55;;;1.70;99.90;;;;;;4893281;29;20049;-72
2021/04/17 01:14:49;;;;;;;14.82;9.35;;;1.70;99.90;;;;;;4878785;29;20614;-71
2021/04/17 01:17:16;;;;;;;14.57;8.52;;;1.60;99.90;;;;;;4873637;29;20061;-71
2021/04/17 01:20:01;;;;;;;16.00;9.18;;;1.60;99.90;;;;;;4858141;29;20132;-72
2021/04/17 01:22:28;;;;;;;9.85;8.77;;;1.50;99.90;;;;;;4865402;29;20045;-71
2021/04/17 01:25:18;;;;;;;9.80;8.20;;;1.60;99.90;;;;;;4886432;29;20433;-72
2021/04/17 01:27:45;;;;;;;11.93;8.32;;;1.50;99.90;;;;;;4885697;29;20390;-71
2021/04/17 01:30:15;;;;;;;11.20;8.02;;;1.50;99.90;;;;;;4888836;29;20116;-72
2021/04/17 01:32:43;;;;;;;9.65;8.25;;;1.50;99.90;;;;;;4888430;29;20087;-71
2021/04/17 01:35:15;;;;;;;9.13;8.18;;;1.40;99.90;;;;;;4874241;29;20104;-72
2021/04/17 01:37:51;;;;;;;10.57;8.27;;;1.30;99.90;;;;;;4873736;29;20044;-72
2021/04/17 01:40:23;;;;;;;8.15;7.43;;;1.20;99.90;;;;;;4886908;29;20068;-71
2021/04/17 01:42:52;;;;;;;8.82;7.93;;;1.20;99.90;;;;;;4890171;29;20067;-72
2021/04/17 01:45:23;;;;;;;10.00;7.65;;;1.20;99.90;;;;;;4883484;29;20092;-71
2021/04/17 01:47:52;;;;;;;11.27;7.35;;;1.20;99.90;;;;;;4889557;29;20064;-72
2021/04/17 01:50:19;;;;;;;8.15;7.32;;;1.20;99.90;;;;;;4883882;29;20073;-71
2021/04/17 01:52:47;;;;;;;8.82;7.72;;;1.30;99.90;;;;;;4880655;29;20124;-72
2021/04/17 01:55:16;;;;;;;8.43;7.63;;;1.10;99.90;;;;;;4885423;29;20076;-72
2021/04/17 01:57:44;;;;;;;10.00;7.85;;;0.90;99.90;;;;;;4871517;29;20067;-71
2021/04/17 02:00:11;;;;;;;9.73;7.55;;;0.80;99.90;;;;;;4871576;29;20113;-71
2021/04/17 02:02:41;;;;;;;7.90;7.18;;;0.90;99.90;;;;;;4872879;29;20053;-72
2021/04/17 02:05:08;;;;;;;8.77;7.13;;;1.00;99.90;;;;;;4887389;29;20056;-72
2021/04/17 02:07:35;;;;;;;8.40;7.22;;;1.10;99.90;;;;;;4871507;29;20052;-72
2021/04/17 02:10:02;;;;;;;16.55;7.65;;;1.00;99.90;;;;;;4877686;29;20068;-71
2021/04/17 02:12:29;;;;;;;10.25;7.38;;;0.90;99.90;;;;;;4881803;29;20161;-70
2021/04/17 02:14:56;;;;;;;9.52;7.22;;;0.90;99.90;;;;;;4880061;29;20053;-71
2021/04/17 02:17:33;;;;;;;11.82;7.20;;;0.90;99.90;;;;;;4901095;29;20049;-71
2021/04/17 02:20:06;;;;;;;11.60;5.95;;;0.80;99.90;;;;;;4890303;29;20057;-71
2021/04/17 02:22:33;;;;;;;8.95;5.88;;;0.80;99.90;;;;;;4897229;29;20100;-71
2021/04/17 02:25:02;;;;;;;12.05;6.60;;;0.60;99.90;;;;;;4877224;29;20143;-71
2021/04/17 02:27:29;;;;;;;10.85;7.38;;;0.60;99.90;;;;;;4891889;29;20534;-71
2021/04/17 02:29:56;;;;;;;18.50;8.70;;;0.50;99.90;;;;;;4887618;29;20049;-70
2021/04/17 02:32:23;;;;;;;12.13;6.63;;;0.40;99.90;;;;;;4891588;29;20052;-71
2021/04/17 02:34:51;;;;;;;11.20;6.35;;;0.40;99.90;;;;;;4898520;29;20057;-72
2021/04/17 02:37:18;;;;;;;8.20;6.38;;;0.40;99.90;;;;;;4888957;29;20580;-70
2021/04/17 02:39:45;;;;;;;9.38;6.68;;;0.30;99.90;;;;;;4890053;29;20754;-71
2021/04/17 02:42:12;;;;;;;7.57;5.90;;;0.10;99.90;;;;;;4882033;29;20076;-72
2021/04/17 02:44:39;;;;;;;10.38;6.28;;;0.30;99.90;;;;;;4894569;29;20052;-70
2021/04/17 02:47:06;;;;;;;11.98;6.70;;;0.20;99.90;;;;;;4907742;29;20565;-71
2021/04/17 02:49:32;;;;;;;6.88;5.32;;;0.10;99.90;;;;;;4875551;29;20060;-71
2021/04/17 02:51:59;;;;;;;9.30;5.13;;;0.10;99.90;;;;;;4894713;29;20079;-70
2021/04/17 02:54:25;;;;;;;10.70;6.18;;;-0.10;99.90;;;;;;4878951;29;20059;-72
2021/04/17 02:56:52;;;;;;;11.57;5.75;;;-0.10;99.90;;;;;;4892893;29;20056;-71
2021/04/17 02:59:19;;;;;;;8.30;5.75;;;0.00;99.90;;;;;;4890359;29;20048;-71
2021/04/17 03:01:46;;;;;;;10.18;6.72;;;0.10;99.90;;;;;;4890222;29;20052;-73
2021/04/17 03:04:13;;;;;;;8.43;6.07;;;0.20;99.90;;;;;;4893184;29;20060;-72
2021/04/17 03:06:40;;;;;;;10.32;6.75;;;0.20;99.90;;;;;;4908183;29;20135;-72
2021/04/17 03:09:06;;;;;;;8.07;6.13;;;0.20;99.90;;;;;;4909211;29;20396;-73
2021/04/17 03:11:33;;;;;;;9.60;6.32;;;0.20;99.90;;;;;;4892802;29;20053;-72
2021/04/17 03:14:00;;;;;;;11.80;6.63;;;0.10;99.90;;;;;;4881222;29;20056;-71
2021/04/17 03:16:26;;;;;;;8.10;5.93;;;0.00;99.90;;;;;;4873688;29;20057;-72
2021/04/17 03:18:53;;;;;;;8.43;5.65;;;0.10;99.90;;;;;;4892782;29;20056;-71
2021/04/17 03:21:20;;;;;;;11.57;6.93;;;0.00;99.90;;;;;;4876834;29;20140;-73
2021/04/17 03:23:46;;;;;;;12.20;6.43;;;-0.10;99.90;;;;;;4857934;29;20700;-72
2021/04/17 03:26:13;;;;;;;13.65;7.18;;;-0.10;99.90;;;;;;4872498;29;20057;-73
2021/04/17 03:28:39;;;;;;;10.48;7.05;;;-0.10;99.90;;;;;;4874468;29;20064;-71
2021/04/17 03:31:06;;;;;;;11.05;6.43;;;-0.20;99.90;;;;;;4889442;29;20072;-73
2021/04/17 03:33:32;;;;;;;10.23;6.47;;;-0.20;99.90;;;;;;4894051;29;20538;-72
2021/04/17 03:35:59;;;;;;;9.15;6.78;;;-0.30;99.90;;;;;;4889947;29;20045;-72
2021/04/17 03:38:25;;;;;;;13.32;6.72;;;-0.30;99.90;;;;;;4882183;29;20083;-72
2021/04/17 03:40:52;;;;;;;11.43;6.57;;;-0.30;99.90;;;;;;4882411;29;20068;-71
2021/04/17 03:43:19;;;;;;;8.40;6.03;;;-0.30;99.90;;;;;;4870374;29;20076;-71
2021/04/17 03:45:45;;;;;;;12.07;7.03;;;-0.40;99.90;;;;;;4867299;29;20100;-71
2021/04/17 03:48:12;;;;;;;7.78;6.40;;;-0.40;99.90;;;;;;4870001;29;20048;-72
2021/04/17 03:50:39;;;;;;;9.73;5.95;;;-0.50;99.90;;;;;;4883157;29;20670;-71
2021/04/17 03:53:06;;;;;;;12.50;6.43;;;-0.40;99.90;;;;;;4877117;29;20362;-72
2021/04/17 03:55:32;;;;;;;9.73;7.00;;;-0.50;99.90;;;;;;4891703;29;20132;-72
2021/04/17 03:57:58;;;;;;;8.18;6.47;;;-0.50;99.90;;;;;;4887795;29;20438;-71
2021/04/17 04:00:25;;;;;;;10.70;6.35;;;-0.60;99.90;;;;;;4893591;29;20508;-70
2021/04/17 04:02:52;;;;;;;9.82;5.97;;;-0.60;99.90;;;;;;4899636;29;20505;-70
2021/04/17 04:05:18;;;;;;;10.13;7.18;;;-0.60;99.90;;;;;;4863435;29;20049;-71
2021/04/17 04:07:46;;;;;;;10.18;6.95;;;-0.60;99.90;;;;;;4905329;29;20072;-70
2021/04/17 04:10:13;;;;;;;9.98;7.30;;;-0.60;99.90;;;;;;4876421;29;20136;-70
2021/04/17 04:12:42;;;;;;;10.15;7.03;;;-0.60;99.90;;;;;;4880351;29;20060;-71
2021/04/17 04:15:10;;;;;;;13.20;7.38;;;-0.50;99.90;;;;;;4873052;29;20696;-72
2021/04/17 04:17:37;;;;;;;12.57;7.85;;;-0.70;99.90;;;;;;4872165;29;20073;-72
2021/04/17 04:20:05;;;;;;;10.07;7.07;;;-0.60;99.90;;;;;;4868866;29;20068;-71
2021/04/17 04:22:33;;;;;;;10.93;6.68;;;-0.60;99.90;;;;;;4892764;29;20056;-71
2021/04/17 04:25:00;;;;;;;10.65;6.60;;;-0.60;99.90;;;;;;4891775;29;20443;-71
2021/04/17 04:27:27;;;;;;;11.30;7.45;;;-0.60;99.90;;;;;;4890895;29;20056;-70
2021/04/17 04:29:53;;;;;;;11.88;6.55;;;-0.60;99.90;;;;;;4876319;29;20040;-72
2021/04/17 04:32:20;;;;;;;14.77;7.05;;;-0.60;99.90;;;;;;4888185;29;20041;-72
2021/04/17 04:34:47;;;;;;;16.92;7.25;;;-0.60;99.90;;;;;;4872915;29;20148;-71
2021/04/17 04:37:14;;;;;;;11.27;6.65;;;-0.60;99.90;;;;;;4871705;29;20261;-72
2021/04/17 04:39:40;;;;;;;9.73;7.15;;;-0.60;99.90;;;;;;4872413;29;20366;-72
2021/04/17 04:42:07;;;;;;;11.57;7.30;;;-0.70;99.90;;;;;;4879390;29;20128;-72
2021/04/17 04:44:33;;;;;;;12.90;7.97;;;-0.70;99.90;;;;;;4888773;29;20526;-71
2021/04/17 04:47:03;;;;;;;11.23;7.50;;;-0.60;99.90;;;;;;4859422;29;20504;-70
2021/04/17 04:49:30;;;;;;;15.10;7.68;;;-0.50;99.90;;;;;;4888159;29;20064;-71
2021/04/17 04:51:57;;;;;;;15.15;8.07;;;-0.40;99.90;;;;;;4891377;29;20052;-71
2021/04/17 04:54:24;;;;;;;10.38;6.95;;;-0.40;99.90;;;;;;4873210;29;20047;-71
2021/04/17 04:56:50;;;;;;;11.32;8.02;;;-0.40;99.90;;;;;;4860319;29;20575;-71
2021/04/17 04:59:17;;;;;;;14.60;7.85;;;-0.30;99.90;;;;;;4871605;29;20060;-72
2021/04/17 05:01:44;;;;;;;11.18;7.30;;;-0.20;99.90;;;;;;4857607;29;20053;-72
2021/04/17 05:04:11;;;;;;;14.88;8.30;;;-0.10;99.90;;;;;;4885750;29;20056;-72
2021/04/17 05:06:37;;;;;;;10.15;7.90;;;-0.10;99.90;;;;;;4906025;29;20068;-71
2021/04/17 05:09:05;;;;;;;13.15;8.43;;;0.00;99.90;;;;;;4874482;29;20260;-72
2021/04/17 05:11:33;;;;;;;18.58;7.57;;;0.00;99.90;;;;;;4899876;29;20072;-71
2021/04/17 05:14:00;;;;;;;11.13;7.85;;;0.00;99.90;;;;;;4887847;29;20508;-71
2021/04/17 05:16:26;;;;;;;14.68;8.43;;;-0.10;99.90;;;;;;4870373;29;20068;-70
2021/04/17 05:18:53;;;;;;;13.20;8.02;;;0.00;99.90;;;;;;4864614;29;20428;-71
2021/04/17 05:21:20;;;;;;;12.10;8.38;;;0.00;99.90;;;;;;4877347;29;20057;-70
2021/04/17 05:23:55;;;;;;;15.32;9.70;;;0.00;99.90;;;;;;4856474;29;20703;-72
2021/04/17 05:26:22;;;;;;;16.42;9.57;;;0.00;99.90;;;;;;4898850;29;20060;-71
2021/04/17 05:28:49;;;;;;;14.88;8.93;;;0.00;99.90;;;;;;4878457;29;20139;-70
2021/04/17 05:31:15;;;;;;;14.68;9.60;;;0.00;99.90;;;;;;4884498;29;20535;-71
2021/04/17 05:33:42;;;;;;;16.00;9.02;;;0.20;99.90;;;;;;4889835;29;20311;-72
2021/04/17 05:36:09;;;;;;;10.82;8.40;;;0.20;99.90;;;;;;4889145;29;20053;-72
2021/04/17 05:38:36;;;;;;;12.55;7.85;;;0.30;99.90;;;;;;4890232;29;20056;-71
2021/04/17 05:41:03;;;;;;;11.65;8.50;;;0.20;99.90;;;;;;4887991;29;20060;-71
2021/04/17 05:43:29;;;;;;;13.48;9.63;;;0.30;99.90;;;;;;4885615;29;20064;-72
2021/04/17 05:45:56;;;;;;;13.15;9.00;;;0.30;99.90;;;;;;4870892;29;20059;-72
2021/04/17 05:48:23;;;;;;;15.88;10.15;;;0.30;99.90;;;;;;4878379;29;20045;-71
2021/04/17 05:50:49;;;;;;;15.07;9.80;;;0.50;99.90;;;;;;4879153;29;20053;-72
2021/04/17 05:53:16;;;;;;;14.13;9.38;;;0.60;99.90;;;;;;4870786;29;20049;-72
2021/04/17 05:55:42;;;;;;;12.45;9.43;;;0.60;99.90;;;;;;4880122;29;20131;-71
2021/04/17 05:58:09;;;;;;;15.32;9.90;;;0.70;99.90;;;;;;4905122;29;20052;-71
2021/04/17 06:00:35;;;;;;;12.68;9.93;;;0.80;99.90;;;;;;4885022;29;20057;-70
2021/04/17 06:03:04;;;;;;;13.43;10.15;;;0.80;99.90;;;;;;4871109;29;20068;-72
2021/04/17 06:05:31;;;;;;;14.98;10.75;;;0.90;99.90;;;;;;4870382;29;20052;-72
2021/04/17 06:08:02;;;;;;;17.35;11.98;;;1.00;99.90;;;;;;4872830;29;20053;-71
2021/04/17 06:10:28;;;;;;;18.02;11.82;;;1.10;99.90;;;;;;4859115;29;20057;-72
2021/04/17 06:12:55;;;;;;;16.23;13.27;;;1.40;99.90;;;;;;4879790;29;20643;-72
2021/04/17 06:15:23;;;;;;;18.80;14.15;;;1.60;99.90;;;;;;4887888;29;20734;-70
2021/04/17 06:17:51;;;;;;;17.27;13.75;;;1.80;99.90;;;;;;4886688;29;20056;-71
2021/04/17 06:20:18;;;;;;;21.42;13.20;;;1.80;99.90;;;;;;4867909;29;20112;-72
2021/04/17 06:22:45;;;;;;;17.35;12.70;;;1.80;99.90;;;;;;4889448;29;20060;-71
2021/04/17 06:25:12;;;;;;;18.23;12.38;;;2.00;99.90;;;;;;4873196;29;20076;-72
2021/04/17 06:27:38;;;;;;;16.73;12.43;;;2.00;99.90;;;;;;4881479;29;20057;-72
2021/04/17 06:30:06;;;;;;;16.85;12.80;;;2.10;99.90;;;;;;4869124;29;20059;-73
2021/04/17 06:32:32;;;;;;;16.85;13.10;;;2.20;99.90;;;;;;4871175;29;20105;-71
2021/04/17 06:34:59;;;;;;;24.08;11.60;;;2.20;99.90;;;;;;4896564;29;20596;-71
2021/04/17 06:37:26;;;;;;;20.60;12.45;;;2.20;99.90;;;;;;4898306;29;20072;-72
2021/04/17 06:39:53;;;;;;;18.38;11.32;;;2.20;99.90;;;;;;4886222;29;20061;-71
2021/04/17 06:42:21;;;;;;;15.10;10.52;;;2.20;99.90;;;;;;4880169;29;20335;-72
2021/04/17 06:44:51;;;;;;;15.23;11.32;;;2.30;99.90;;;;;;4883433;29;20068;-71
2021/04/17 06:47:18;;;;;;;11.32;9.93;;;2.40;99.90;;;;;;4890186;29;20057;-73
2021/04/17 06:49:45;;;;;;;10.27;9.48;;;2.50;99.90;;;;;;4883873;29;20538;-71
2021/04/17 06:52:13;;;;;;;16.13;12.82;;;2.40;99.90;;;;;;4854946;29;20061;-71
2021/04/17 06:54:41;;;;;;;15.77;14.18;;;2.50;99.90;;;;;;4889953;29;20560;-71
2021/04/17 06:57:08;;;;;;;18.38;15.65;;;2.70;99.90;;;;;;4877629;29;20073;-72
2021/04/17 06:59:34;;;;;;;18.42;13.45;;;2.90;99.90;;;;;;4897503;29;20069;-72
2021/04/17 07:02:01;;;;;;;22.83;13.63;;;3.10;99.90;;;;;;4903247;29;20116;-72
2021/04/17 07:04:28;;;;;;;15.15;12.52;;;3.10;99.90;;;;;;4874147;29;20048;-72
2021/04/17 07:06:54;;;;;;;23.60;14.65;;;3.10;99.90;;;;;;4872813;29;20057;-73
2021/04/17 07:09:22;;;;;;;17.88;14.70;;;3.20;99.90;;;;;;4864421;29;20528;-72
2021/04/17 07:11:49;;;;;;;23.15;14.63;;;3.30;99.90;;;;;;4886935;29;20044;-71
2021/04/17 07:14:17;;;;;;;27.00;17.27;;;3.40;99.90;;;;;;4884342;29;20059;-71
2021/04/17 07:17:04;;;;;;;31.15;19.33;;;3.50;99.90;;;;;;4895100;29;20136;-71
2021/04/17 07:19:55;;;;;;;14.52;11.85;;;3.50;99.90;;;;;;4883135;29;20324;-72
2021/04/17 07:22:24;;;;;;;14.25;11.30;;;3.60;99.90;;;;;;4891978;29;20045;-71
2021/04/17 07:24:53;;;;;;;14.68;11.30;;;3.50;99.90;;;;;;4880883;29;20504;-71
2021/04/17 07:27:35;;;;;;;17.63;11.05;;;3.50;99.90;;;;;;4880792;29;20697;-72
2021/04/17 07:30:14;;;;;;;16.05;11.55;;;3.40;99.90;;;;;;4881556;29;20069;-71
2021/04/17 07:32:47;;;;;;;15.52;10.68;;;3.40;99.90;;;;;;4890729;29;20049;-72
2021/04/17 07:35:14;;;;;;;19.40;13.60;;;3.40;99.90;;;;;;4880661;29;20797;-71
2021/04/17 07:37:44;;;;;;;27.95;17.77;;;3.50;99.90;;;;;;4872230;29;20049;-71
2021/04/17 07:40:29;;;;;;;21.67;13.02;;;3.60;99.90;;;;;;4873547;29;20711;-71
2021/04/17 07:42:56;;;;;;;20.77;16.50;;;3.70;99.90;;;;;;4877288;29;20359;-72
2021/04/17 07:45:26;;;;;;;19.65;13.60;;;3.70;99.90;;;;;;4900085;29;20063;-71
2021/04/17 07:47:55;;;;;;;20.85;14.40;;;3.80;99.90;;;;;;4890633;29;20077;-72
2021/04/17 07:50:22;;;;;;;19.10;13.48;;;3.90;99.90;;;;;;4887492;29;20136;-72
2021/04/17 07:52:49;;;;;;;16.48;12.43;;;4.00;99.90;;;;;;4871995;29;20077;-72
2021/04/17 07:55:18;;;;;;;19.45;13.00;;;3.90;99.90;;;;;;4871893;29;20081;-71
2021/04/17 07:57:52;;;;;;;14.80;12.60;;;4.00;99.90;;;;;;4887610;29;20536;-72
2021/04/17 08:00:20;;;;;;;17.75;12.30;;;4.10;99.90;;;;;;4873957;29;20052;-71
2021/04/17 08:02:51;;;;;;;15.68;11.98;;;4.20;99.90;;;;;;4873095;29;20052;-70
2021/04/17 08:05:20;;;;;;;19.17;12.00;;;4.20;99.90;;;;;;4888287;29;20530;-72
2021/04/17 08:07:51;;;;;;;13.07;11.75;;;4.10;99.90;;;;;;4891839;29;20079;-72
2021/04/17 08:10:19;;;;;;;13.82;12.27;;;4.20;99.90;;;;;;4905935;29;20508;-72
2021/04/17 08:12:47;;;;;;;12.55;11.30;;;4.30;99.90;;;;;;4869395;29;20149;-72
2021/04/17 08:15:17;;;;;;;13.65;11.50;;;4.20;99.90;;;;;;4898018;29;20254;-71
2021/04/17 08:17:49;;;;;;;13.95;12.50;;;4.30;99.90;;;;;;4873296;29;20049;-71
2021/04/17 08:20:18;;;;;;;13.88;11.70;;;4.40;99.90;;;;;;4883574;29;20057;-73
2021/04/17 08:22:48;;;;;;;19.50;11.45;;;4.40;99.90;;;;;;4889692;29;20059;-70
2021/04/17 08:25:20;;;;;;;18.13;13.45;;;4.40;99.90;;;;;;4872619;29;20087;-71
2021/04/17 08:27:48;;;;;;;16.58;12.45;;;4.40;99.90;;;;;;4907196;29;20056;-72
2021/04/17 08:30:27;;;;;;;14.55;12.38;;;4.40;99.90;;;;;;4873829;29;20048;-75
2021/04/17 08:32:54;;;;;;;19.25;15.27;;;4.50;99.90;;;;;;4862907;29;20045;-73
2021/04/17 08:35:23;;;;;;;16.38;14.23;;;4.50;99.90;;;;;;4875898;29;20365;-71
2021/04/17 08:37:56;;;;;;;13.98;12.23;;;4.70;99.90;;;;;;4880959;29;20049;-72
2021/04/17 08:40:39;;;;;;;15.10;12.02;;;4.70;99.90;;;;;;4872835;29;20085;-72
2021/04/17 08:43:29;;;;;;;14.82;13.18;;;4.90;99.90;;;;;;4890567;29;20577;-71
2021/04/17 08:46:14;;;;;;;15.38;12.95;;;5.00;99.90;;;;;;4897635;29;20062;-71
2021/04/17 08:48:58;;;;;;;15.10;13.35;;;5.10;99.90;;;;;;4904941;29;20060;-71
2021/04/17 08:51:30;;;;;;;13.88;12.27;;;5.20;99.90;;;;;;4887452;29;20223;-72
2021/04/17 08:54:05;;;;;;;17.33;12.93;;;5.20;99.90;;;;;;4869040;29;20053;-73
2021/04/17 08:56:52;;;;;;;13.55;12.25;;;5.20;99.90;;;;;;4885430;29;20057;-72
2021/04/17 08:59:32;;;;;;;16.55;13.45;;;5.30;99.90;;;;;;4874459;29;20060;-72
2021/04/17 09:02:05;;;;;;;16.50;12.68;;;5.20;99.90;;;;;;4889772;29;20052;-71
2021/04/17 09:04:35;;;;;;;19.50;14.07;;;5.10;99.90;;;;;;4889144;29;20049;-73
2021/04/17 09:07:15;;;;;;;17.85;14.05;;;5.10;99.90;;;;;;4873313;29;20049;-71
2021/04/17 09:09:41;;;;;;;14.80;12.63;;;5.30;99.90;;;;;;4882005;29;20586;-71
2021/04/17 09:12:08;;;;;;;16.50;13.10;;;5.40;99.90;;;;;;4885845;29;20143;-71
2021/04/17 09:14:36;;;;;;;16.55;12.90;;;5.40;99.90;;;;;;4879946;29;20057;-71
2021/04/17 09:17:27;;;;;;;16.77;15.07;;;5.50;99.90;;;;;;4886147;29;20095;-71
2021/04/17 09:19:54;;;;;;;17.10;14.32;;;5.70;99.90;;;;;;4882523;29;20135;-73
2021/04/17 09:22:27;;;;;;;15.93;14.43;;;5.80;99.90;;;;;;4900221;29;20654;-72
2021/04/17 09:24:57;;;;;;;16.75;14.30;;;5.90;99.90;;;;;;4904829;29;20075;-71
2021/04/17 09:27:31;;;;;;;15.82;14.23;;;6.00;99.90;;;;;;4888082;29;20060;-71
2021/04/17 09:30:11;;;;;;;17.58;14.45;;;6.00;99.90;;;;;;4906045;29;20092;-72
2021/04/17 09:32:39;;;;;;;15.50;13.85;;;5.90;99.90;;;;;;4904937;29;20079;-71
2021/04/17 09:35:22;;;;;;;17.73;15.85;;;6.00;99.90;;;;;;4885820;29;20089;-72
2021/04/17 09:38:11;;;;;;;21.77;16.10;;;6.00;99.90;;;;;;4871268;29;20053;-72
2021/04/17 09:40:52;;;;;;;16.73;14.82;;;6.10;99.90;;;;;;4869870;29;20581;-72
2021/04/17 09:43:28;;;;;;;17.23;15.45;;;6.20;99.90;;;;;;4888548;29;20502;-71
2021/04/17 09:45:56;;;;;;;19.20;14.90;;;6.30;99.90;;;;;;4886369;29;20643;-73
2021/04/17 09:48:24;;;;;;;16.90;15.30;;;6.30;99.90;;;;;;4889697;29;20049;-71
2021/04/17 09:50:55;;;;;;;20.27;15.43;;;6.30;99.90;;;;;;4896588;29;20067;-71
2021/04/17 09:53:34;;;;;;;20.08;15.50;;;6.30;99.90;;;;;;4889741;29;20531;-71
2021/04/17 09:56:07;;;;;;;30.42;20.88;;;6.30;99.90;;;;;;4889653;29;20080;-72
2021/04/17 09:58:37;;;;;;;25.60;16.85;;;6.40;99.90;;;;;;4904886;29;20161;-73
2021/04/17 10:01:15;;;;;;;19.02;15.40;;;6.70;99.90;;;;;;4890172;29;20476;-73
2021/04/17 10:03:44;;;;;;;23.27;16.90;;;7.20;99.90;;;;;;4901900;29;20098;-73
2021/04/17 10:06:25;;;;;;;19.13;14.82;;;7.40;99.90;;;;;;4884935;29;20052;-73
2021/04/17 10:08:53;;;;;;;16.77;14.48;;;7.40;99.90;;;;;;4886227;29;20053;-73
2021/04/17 10:11:22;;;;;;;17.60;14.27;;;7.40;99.90;;;;;;4872425;29;20727;-73
2021/04/17 10:13:49;;;;;;;17.40;14.98;;;7.70;99.90;;;;;;4895913;29;20329;-72
2021/04/17 10:16:33;;;;;;;16.00;13.63;;;7.90;99.90;;;;;;4888256;29;20143;-73
2021/04/17 10:19:03;;;;;;;17.58;15.90;;;8.40;99.90;;;;;;4885578;29;20063;-72
2021/04/17 10:21:32;;;;;;;16.33;14.68;;;8.40;99.90;;;;;;4866197;29;20061;-72
2021/04/17 10:24:19;;;;;;;16.42;13.38;;;8.50;99.90;;;;;;4888740;29;20143;-72
2021/04/17 10:26:56;;;;;;;19.70;14.32;;;8.60;99.90;;;;;;4886855;29;20770;-71
2021/04/17 10:29:45;;;;;;;19.58;15.07;;;8.40;99.90;;;;;;4890453;29;20056;-72
2021/04/17 10:32:48;;;;;;;16.77;13.85;;;8.40;99.90;;;;;;4893260;29;20045;-73
2021/04/17 10:35:15;;;;;;;22.23;15.90;;;8.60;99.90;;;;;;4887901;29;20061;-72
2021/04/17 10:37:48;;;;;;;15.13;13.30;;;8.70;99.90;;;;;;4873509;29;20147;-73
2021/04/17 10:40:20;;;;;;;16.02;14.48;;;8.80;99.90;;;;;;4903586;29;20147;-73
2021/04/17 10:42:58;;;;;;;21.77;15.65;;;8.60;99.90;;;;;;4881650;29;20416;-71
2021/04/17 10:45:38;;;;;;;17.02;15.30;;;8.70;99.90;;;;;;4886990;29;20117;-72
2021/04/17 10:48:04;;;;;;;21.83;14.68;;;8.80;99.90;;;;;;4874905;29;20088;-73
2021/04/17 10:50:35;;;;;;;21.77;15.25;;;8.80;99.90;;;;;;4896079;29;20065;-72
2021/04/17 10:53:13;;;;;;;18.42;14.85;;;8.90;99.90;;;;;;4886409;29;20097;-72
2021/04/17 10:55:48;;;;;;;18.38;13.55;;;9.20;99.90;;;;;;4901329;29;20045;-72
2021/04/17 10:58:28;;;;;;;16.00;14.05;;;9.10;99.90;;;;;;4869836;29;20158;-73
2021/04/17 11:00:58;;;;;;;15.35;13.75;;;9.20;99.90;;;;;;4883431;29;20509;-73
2021/04/17 11:03:28;;;;;;;16.65;14.55;;;9.80;99.90;;;;;;4875689;29;20533;-73
2021/04/17 11:05:55;;;;;;;18.50;14.45;;;10.00;99.90;;;;;;4891284;29;20052;-72
2021/04/17 11:08:28;;;;;;;15.93;14.45;;;9.90;99.90;;;;;;4884505;29;20060;-71
2021/04/17 11:10:55;;;;;;;16.23;14.50;;;10.10;99.90;;;;;;4905814;29;20071;-73
2021/04/17 11:13:33;;;;;;;15.73;14.13;;;10.30;99.90;;;;;;4898835;29;20049;-74
2021/04/17 11:16:01;;;;;;;17.88;13.32;;;10.40;99.90;;;;;;4884830;29;20408;-74
2021/04/17 11:18:41;;;;;;;17.05;14.02;;;10.50;99.90;;;;;;4895804;29;20592;-72
2021/04/17 11:21:11;;;;;;;15.82;14.32;;;10.50;99.90;;;;;;4881007;29;20074;-73
2021/04/17 11:23:42;;;;;;;17.13;14.18;;;10.60;99.90;;;;;;4881384;29;20056;-73
2021/04/17 11:26:16;;;;;;;20.95;15.57;;;10.60;99.90;;;;;;4858238;29;20711;-72
2021/04/17 11:28:47;;;;;;;19.20;12.73;;;10.80;99.90;;;;;;4890242;29;20048;-73
2021/04/17 11:31:17;;;;;;;15.73;14.07;;;10.80;99.90;;;;;;4887950;29;20113;-73
2021/04/17 11:33:45;;;;;;;15.55;13.90;;;10.80;99.90;;;;;;4898048;29;20049;-74
2021/04/17 11:36:18;;;;;;;21.00;15.80;;;10.50;99.90;;;;;;4898074;29;20049;-78
2021/04/17 11:38:45;;;;;;;20.40;14.43;;;10.60;99.90;;;;;;4872257;29;20056;-77
2021/04/17 11:41:11;;;;;;;15.80;14.40;;;10.90;99.90;;;;;;4876439;29;20049;-77
2021/04/17 11:43:38;;;;;;;17.15;15.63;;;11.00;99.90;;;;;;4901767;29;20045;-76
2021/04/17 11:46:06;;;;;;;15.90;14.40;;;11.10;99.90;;;;;;4891902;29;20109;-76
2021/04/17 11:48:39;;;;;;;17.20;15.45;;;11.20;99.90;;;;;;4904641;29;20153;-76
2021/04/17 11:51:05;;;;;;;18.02;15.65;;;11.20;99.90;;;;;;4891023;29;20048;-76
2021/04/17 11:53:32;;;;;;;16.90;15.20;;;11.00;99.90;;;;;;4891716;29;20064;-76
2021/04/17 11:56:00;;;;;;;17.75;13.60;;;10.80;99.90;;;;;;4888482;29;20057;-76
2021/04/17 11:58:27;;;;;;;16.73;14.50;;;11.20;99.90;;;;;;4871967;29;20061;-77
2021/04/17 12:00:54;;;;;;;17.92;13.77;;;11.30;99.90;;;;;;4892531;29;20052;-76
2021/04/17 12:03:23;;;;;;;15.40;13.88;;;11.50;99.90;;;;;;4906878;29;20060;-78
2021/04/17 12:05:52;;;;;;;14.32;11.60;;;11.70;99.90;;;;;;4888412;29;20052;-77
2021/04/17 12:08:20;;;;;;;14.25;12.93;;;11.70;99.90;;;;;;4888459;29;20049;-76
2021/04/17 12:10:47;;;;;;;15.00;13.40;;;11.60;99.90;;;;;;4856676;29;20065;-77
2021/04/17 12:13:14;;;;;;;12.45;11.27;;;11.60;99.90;;;;;;4873978;29;20053;-76
2021/04/17 12:15:42;;;;;;;12.27;11.20;;;11.40;99.90;;;;;;4856796;29;20053;-78
2021/04/17 12:18:09;;;;;;;12.45;11.30;;;11.40;99.90;;;;;;4859863;29;20057;-76
2021/04/17 12:20:36;;;;;;;12.30;11.20;;;11.20;99.90;;;;;;4889421;29;20080;-76
2021/04/17 12:23:03;;;;;;;15.57;14.15;;;11.20;99.90;;;;;;4857492;29;20056;-76
2021/04/17 12:25:30;;;;;;;13.57;12.45;;;11.20;99.90;;;;;;4884216;29;20056;-76
2021/04/17 12:27:57;;;;;;;14.20;13.00;;;11.10;99.90;;;;;;4884681;29;20060;-77
2021/04/17 12:30:25;;;;;;;13.18;12.25;;;11.10;99.90;;;;;;4892731;29;20057;-77
2021/04/17 12:33:07;;;;;;;13.32;11.98;;;11.10;99.90;;;;;;4890499;29;20071;-77
2021/04/17 12:35:35;;;;;;;13.80;12.55;;;11.10;99.90;;;;;;4889279;29;20055;-78
2021/04/17 12:38:02;;;;;;;14.20;12.73;;;11.10;99.90;;;;;;4908089;29;20056;-77
2021/04/17 12:40:35;;;;;;;12.85;11.93;;;11.20;99.90;;;;;;4890427;29;20049;-78
2021/04/17 12:43:03;;;;;;;13.80;12.68;;;11.10;99.90;;;;;;4907683;29;20111;-76
2021/04/17 12:45:29;;;;;;;12.75;11.57;;;10.90;99.90;;;;;;4889928;29;20056;-77
2021/04/17 12:47:56;;;;;;;12.20;11.27;;;10.90;99.90;;;;;;4875017;29;20147;-76
2021/04/17 12:50:26;;;;;;;13.73;12.40;;;10.90;99.90;;;;;;4875997;29;20053;-77
2021/04/17 12:52:53;;;;;;;13.23;12.02;;;10.60;99.90;;;;;;4891979;29;20516;-77
2021/04/17 12:55:19;;;;;;;13.13;12.10;;;10.20;99.90;;;;;;4890938;29;20059;-76